aviador You're here:

ZSHC Decoded Metar

HANGZHOU in CHINA
Report Time2017-05-30 11:00:00
UTC Time2017-05-30 11:08:38
Flight Rules vfr VFR
Wind100° at 4 kt
W.Decomp.*RWY 07: 3.3 kt HW 2.2 kt RCW
W.Rank100° ranks 4
Current wind is below 100° avg. (5.4)
Visibility9999 m
Phenomena:N/A
Clouds:N/A
Expected CloudBase > 3,600 ft AGL from Temp-Dew spread
CeilingNone
Temp30°C (ISA +15)
Dew Point21°C (59% RH)
Heat Index32.6°C
QNH1004 hPa
Density Alt2,523 ft
Elevation141 ft
Report Wrong Elevation
Raw Report
METAR ZSHC 301100Z 10002MPS CAVOK 30/21 Q1004 NOSIG=

Extra information for ZSHC:More info

Metar Taf Metar & Taf Last 4 Metars F.Rules Stats Wind Profile Meteogram Temp Stats Airport Information Weather charts Add Link Nearby VenuesMetar ALERT Operation Metar Decoded Social comments